createdAt,value
2023-02-22T00:01:35.445Z,99539.97
2023-02-22T00:04:04.056Z,99547.97
2023-02-22T00:06:31.255Z,99550.47
2023-02-22T00:08:58.609Z,99551.25
2023-02-22T00:11:26.462Z,99553.72
2023-02-22T00:13:57.122Z,99557.69
2023-02-22T00:16:24.897Z,99558.13
2023-02-22T00:18:52.457Z,99568.03
2023-02-22T00:21:19.672Z,99560.16
2023-02-22T00:23:47.206Z,99565.38
2023-02-22T00:26:18.274Z,99554.69
2023-02-22T00:28:47.106Z,99561.34
2023-02-22T00:31:15.047Z,99555.34
2023-02-22T00:33:42.906Z,99556.50
2023-02-22T00:36:11.127Z,99559.09
2023-02-22T00:38:38.911Z,99560.91
2023-02-22T00:41:06.150Z,99563.69
2023-02-22T00:43:33.495Z,99567.09
2023-02-22T00:46:01.035Z,99558.31
2023-02-22T00:48:28.491Z,99559.66
2023-02-22T00:50:55.688Z,99556.63
2023-02-22T00:53:23.897Z,99561.13
2023-02-22T00:55:51.096Z,99558.78
2023-02-22T00:58:18.724Z,99551.78
2023-02-22T01:00:46.265Z,99546.72
2023-02-22T01:03:15.148Z,99554.38
2023-02-22T01:05:42.460Z,99552.13
2023-02-22T01:08:10.841Z,99550.87
2023-02-22T01:10:38.358Z,99551.87
2023-02-22T01:13:09.181Z,99544.47
2023-02-22T01:15:37.543Z,99543.78
2023-02-22T01:18:05.286Z,99542.06
2023-02-22T01:20:32.661Z,99542.22
2023-02-22T01:23:01.026Z,99547.19
2023-02-22T01:25:29.988Z,99545.78
2023-02-22T01:27:57.605Z,99542.41
2023-02-22T01:30:26.493Z,99542.94
2023-02-22T01:32:53.812Z,99540.78
2023-02-22T01:35:27.697Z,99534.66
2023-02-22T01:37:55.471Z,99537.94
2023-02-22T01:40:23.873Z,99540.06
2023-02-22T01:42:51.705Z,99541.91
2023-02-22T01:45:32.832Z,99538.63
2023-02-22T01:48:03.340Z,99534.66
2023-02-22T01:50:32.140Z,99529.97
2023-02-22T01:52:59.291Z,99535.31
2023-02-22T01:55:26.911Z,99535.03
2023-02-22T01:57:54.383Z,99536.16
2023-02-22T02:00:22.291Z,99542.63
2023-02-22T02:02:54.558Z,99533.84
2023-02-22T02:05:24.768Z,99531.78
2023-02-22T02:07:52.853Z,99527.16
2023-02-22T02:10:21.489Z,99534.22
2023-02-22T02:12:49.595Z,99523.69
2023-02-22T02:15:20.131Z,99529.00
2023-02-22T02:17:47.740Z,99525.66
2023-02-22T02:20:17.940Z,99536.78
2023-02-22T02:22:54.611Z,99529.75
2023-02-22T02:25:40.593Z,99530.00
2023-02-22T02:28:07.990Z,99535.00
2023-02-22T02:30:41.269Z,99529.19
2023-02-22T02:33:24.974Z,99526.63
2023-02-22T02:36:03.340Z,99531.34
2023-02-22T02:38:32.658Z,99524.97
2023-02-22T02:41:05.556Z,99530.09
2023-02-22T02:43:53.270Z,99526.56
2023-02-22T02:46:36.920Z,99530.63
2023-02-22T02:49:12.104Z,99534.41
2023-02-22T02:51:40.358Z,99528.44
2023-02-22T02:54:07.837Z,99533.59
2023-02-22T02:56:34.964Z,99528.72
2023-02-22T02:59:02.112Z,99533.81
2023-02-22T03:01:29.595Z,99535.81
2023-02-22T03:04:23.275Z,99532.19
2023-02-22T03:07:20.155Z,99531.19
2023-02-22T03:10:02.426Z,99531.47
2023-02-22T03:12:32.652Z,99530.72
2023-02-22T03:15:14.744Z,99534.34
2023-02-22T03:17:51.347Z,99538.22
2023-02-22T03:20:31.973Z,99539.06
2023-02-22T03:23:15.175Z,99544.75
2023-02-22T03:25:48.878Z,99534.63
2023-02-22T03:28:17.218Z,99539.31
2023-02-22T03:30:51.931Z,99539.25
2023-02-22T03:33:28.851Z,99539.03
2023-02-22T03:35:59.914Z,99541.81
2023-02-22T03:38:28.024Z,99539.34
2023-02-22T03:40:55.630Z,99543.16
2023-02-22T03:43:25.006Z,99536.37
2023-02-22T03:45:53.210Z,99547.00
2023-02-22T03:48:20.756Z,99549.72
2023-02-22T03:50:48.180Z,99550.00
2023-02-22T03:53:16.871Z,99550.03
2023-02-22T03:55:44.234Z,99556.41
2023-02-22T03:58:11.919Z,99553.25
2023-02-22T04:00:39.386Z,99554.00
2023-02-22T04:03:07.083Z,99557.25
2023-02-22T04:05:34.304Z,99559.22
2023-02-22T04:08:02.116Z,99558.66
2023-02-22T04:10:31.735Z,99556.25
2023-02-22T04:13:00.085Z,99554.56
2023-02-22T04:15:27.355Z,99558.22
2023-02-22T04:17:55.510Z,99557.94
2023-02-22T04:20:25.574Z,99560.75
2023-02-22T04:22:53.558Z,99561.78
2023-02-22T04:25:21.649Z,99566.47
2023-02-22T04:27:48.860Z,99552.59
2023-02-22T04:30:17.705Z,99559.25
2023-02-22T04:32:45.172Z,99562.66
2023-02-22T04:35:12.585Z,99573.41
2023-02-22T04:37:39.831Z,99568.31
2023-02-22T04:40:08.052Z,99566.19
2023-02-22T04:42:36.020Z,99573.28
2023-02-22T04:45:03.811Z,99565.63
2023-02-22T04:47:31.276Z,99567.19
2023-02-22T04:50:00.432Z,99567.75
2023-02-22T04:52:27.838Z,99567.31
2023-02-22T04:54:55.294Z,99565.75
2023-02-22T04:57:22.436Z,99568.59
2023-02-22T04:59:51.186Z,99565.63
2023-02-22T05:02:19.405Z,99567.75
2023-02-22T05:04:46.722Z,99568.88
2023-02-22T05:07:13.980Z,99564.22
2023-02-22T05:09:41.444Z,99569.41
2023-02-22T05:12:08.615Z,99569.16
2023-02-22T05:14:35.841Z,99571.56
2023-02-22T05:17:03.779Z,99573.41
2023-02-22T05:19:30.974Z,99571.00
2023-02-22T05:21:58.175Z,99569.72
2023-02-22T05:24:25.596Z,99565.34
2023-02-22T05:26:53.295Z,99572.41
2023-02-22T05:29:21.115Z,99568.16
2023-02-22T05:31:48.789Z,99572.00
2023-02-22T05:34:15.987Z,99578.59
2023-02-22T05:36:43.198Z,99584.56
2023-02-22T05:39:10.612Z,99597.34
2023-02-22T05:41:37.756Z,99593.22
2023-02-22T05:44:04.999Z,99600.84
2023-02-22T05:46:32.522Z,99597.75
2023-02-22T05:48:59.779Z,99604.28
2023-02-22T05:51:27.020Z,99597.06
2023-02-22T05:53:54.426Z,99606.25
2023-02-22T05:56:26.004Z,99597.75
2023-02-22T05:58:53.346Z,99609.25
2023-02-22T06:01:21.219Z,99604.13
2023-02-22T06:03:49.429Z,99605.13
2023-02-22T06:06:16.782Z,99605.84
2023-02-22T06:08:44.066Z,99611.38
2023-02-22T06:11:11.585Z,99613.19
2023-02-22T06:13:39.014Z,99613.78
2023-02-22T06:16:06.669Z,99614.63
2023-02-22T06:18:34.138Z,99619.97
2023-02-22T06:21:01.348Z,99619.59
2023-02-22T06:23:28.478Z,99622.44
2023-02-22T06:25:55.920Z,99622.59
2023-02-22T06:28:23.771Z,99622.00
2023-02-22T06:30:50.953Z,99624.44
2023-02-22T06:33:18.382Z,99627.84
2023-02-22T06:35:45.603Z,99629.53
2023-02-22T06:38:12.907Z,99630.81
2023-02-22T06:40:40.326Z,99631.53
2023-02-22T06:43:07.668Z,99633.50
2023-02-22T06:45:34.827Z,99639.06
2023-02-22T06:48:02.289Z,99639.19
2023-02-22T06:50:30.010Z,99649.97
2023-02-22T06:52:57.377Z,99647.41
2023-02-22T06:55:25.982Z,99642.44
2023-02-22T06:57:53.376Z,99652.22
2023-02-22T07:00:21.328Z,99646.72
2023-02-22T07:02:48.893Z,99644.75
2023-02-22T07:05:17.198Z,99641.47
2023-02-22T07:07:44.458Z,99647.28
2023-02-22T07:10:17.997Z,99643.00
2023-02-22T07:12:45.213Z,99637.75
2023-02-22T07:15:13.734Z,99647.12
2023-02-22T07:17:41.309Z,99637.47
2023-02-22T07:20:09.069Z,99640.63
2023-02-22T07:22:36.544Z,99640.16
2023-02-22T07:25:03.743Z,99640.69
2023-02-22T07:27:30.967Z,99641.97
2023-02-22T07:29:58.762Z,99642.94
2023-02-22T07:32:26.002Z,99643.87
2023-02-22T07:34:53.260Z,99640.03
2023-02-22T07:37:21.312Z,99646.97
2023-02-22T07:39:48.496Z,99649.63
2023-02-22T07:42:15.739Z,99652.06
2023-02-22T07:44:43.895Z,99648.56
2023-02-22T07:47:13.028Z,99655.19
2023-02-22T07:49:40.182Z,99651.13
2023-02-22T07:52:07.810Z,99647.53
2023-02-22T07:54:34.985Z,99645.44
2023-02-22T07:57:03.494Z,99646.22
2023-02-22T07:59:30.913Z,99641.38
2023-02-22T08:01:58.107Z,99639.03
2023-02-22T08:04:25.634Z,99645.00
2023-02-22T08:06:52.794Z,99642.63
2023-02-22T08:09:19.945Z,99641.84
2023-02-22T08:11:47.436Z,99643.37
2023-02-22T08:14:15.817Z,99635.34
2023-02-22T08:16:42.970Z,99642.97
2023-02-22T08:19:10.508Z,99635.06
2023-02-22T08:21:37.658Z,99637.81
2023-02-22T08:24:04.995Z,99639.88
2023-02-22T08:26:32.441Z,99634.41
2023-02-22T08:28:59.583Z,99635.22
2023-02-22T08:31:26.866Z,99643.63
2023-02-22T08:33:54.390Z,99639.06
2023-02-22T08:36:21.691Z,99635.03
2023-02-22T08:38:49.811Z,99634.66
2023-02-22T08:41:17.629Z,99635.91
2023-02-22T08:43:45.164Z,99637.22
2023-02-22T08:46:12.503Z,99636.88
2023-02-22T08:48:45.559Z,99641.13
2023-02-22T08:51:12.778Z,99643.16
2023-02-22T08:53:40.186Z,99648.44
2023-02-22T08:56:07.386Z,99642.72
2023-02-22T08:58:35.185Z,99647.66
2023-02-22T09:01:02.622Z,99645.28
2023-02-22T09:03:29.814Z,99640.06
2023-02-22T09:05:57.003Z,99636.34
2023-02-22T09:08:24.442Z,99635.31
2023-02-22T09:10:51.837Z,99637.16
2023-02-22T09:13:19.014Z,99634.41
2023-02-22T09:15:46.458Z,99641.31
2023-02-22T09:18:14.745Z,99637.66
2023-02-22T09:20:42.029Z,99633.59
2023-02-22T09:23:09.858Z,99634.69
2023-02-22T09:25:38.805Z,99639.22
2023-02-22T09:28:06.041Z,99634.06
2023-02-22T09:30:34.472Z,99632.25
2023-02-22T09:33:12.177Z,99637.56
2023-02-22T09:35:42.810Z,99635.25
2023-02-22T09:38:10.496Z,99625.59
2023-02-22T09:40:44.907Z,99624.72
2023-02-22T09:43:21.430Z,99632.31
2023-02-22T09:45:54.704Z,99625.13
2023-02-22T09:48:22.744Z,99627.03
2023-02-22T09:50:50.082Z,99615.75
2023-02-22T09:53:32.033Z,99617.38
2023-02-22T09:56:04.013Z,99617.56
2023-02-22T09:58:34.592Z,99609.19
2023-02-22T10:01:10.603Z,99623.38
2023-02-22T10:03:42.488Z,99619.59
2023-02-22T10:06:10.727Z,99614.03
2023-02-22T10:08:38.776Z,99611.69
2023-02-22T10:11:10.343Z,99616.53
2023-02-22T10:13:43.652Z,99616.81
2023-02-22T10:16:26.161Z,99622.41
2023-02-22T10:18:57.130Z,99617.41
2023-02-22T10:21:43.259Z,99623.59
2023-02-22T10:24:20.187Z,99612.59
2023-02-22T10:26:47.431Z,99614.19
2023-02-22T10:29:32.654Z,99610.72
2023-02-22T10:32:01.608Z,99603.56
2023-02-22T10:34:40.241Z,99606.88
2023-02-22T10:37:30.718Z,99609.22
2023-02-22T10:40:17.824Z,99608.25
2023-02-22T10:42:45.140Z,99611.50
2023-02-22T10:45:22.476Z,99611.03
2023-02-22T10:47:50.006Z,99608.88
2023-02-22T10:50:17.603Z,99603.59
2023-02-22T10:52:44.815Z,99590.72
2023-02-22T10:55:16.146Z,99603.00
2023-02-22T10:57:47.239Z,99596.94
2023-02-22T11:00:26.360Z,99596.25
2023-02-22T11:03:04.221Z,99599.03
2023-02-22T11:05:38.475Z,99596.69
2023-02-22T11:08:20.994Z,99595.34
2023-02-22T11:10:52.562Z,99597.97
2023-02-22T11:13:27.352Z,99592.94
2023-02-22T11:15:55.673Z,99589.37
2023-02-22T11:18:41.307Z,99586.31
2023-02-22T11:21:10.360Z,99587.00
2023-02-22T11:23:38.595Z,99581.81
2023-02-22T11:26:10.523Z,99578.84
2023-02-22T11:28:38.017Z,99582.66
2023-02-22T11:31:13.033Z,99574.84
2023-02-22T11:33:40.539Z,99568.03
2023-02-22T11:36:09.420Z,99576.03
2023-02-22T11:38:37.503Z,99565.03
2023-02-22T11:41:04.972Z,99573.69
2023-02-22T11:43:32.217Z,99572.75
2023-02-22T11:46:03.975Z,99569.81
2023-02-22T11:48:32.537Z,99576.69
2023-02-22T11:51:00.263Z,99578.25
2023-02-22T11:53:45.985Z,99576.56
2023-02-22T11:56:28.356Z,99565.63
2023-02-22T11:59:04.677Z,99562.66
2023-02-22T12:02:00.036Z,99566.81
2023-02-22T12:05:02.890Z,99558.22
2023-02-22T12:07:39.410Z,99564.72
2023-02-22T12:10:29.240Z,99562.91
2023-02-22T12:12:56.368Z,99558.97
2023-02-22T12:15:28.957Z,99548.06
2023-02-22T12:18:02.187Z,99552.28
2023-02-22T12:20:30.984Z,99550.19
2023-02-22T12:23:01.420Z,99546.78
2023-02-22T12:25:31.955Z,99549.28
2023-02-22T12:28:00.619Z,99537.78
2023-02-22T12:30:29.905Z,99544.09
2023-02-22T12:32:59.695Z,99546.97
2023-02-22T12:35:28.438Z,99534.88
2023-02-22T12:38:01.877Z,99530.81
2023-02-22T12:40:57.177Z,99536.84
2023-02-22T12:43:29.042Z,99538.94
2023-02-22T12:45:59.529Z,99537.94
2023-02-22T12:48:46.372Z,99530.31
2023-02-22T12:51:19.685Z,99534.75
2023-02-22T12:53:52.618Z,99534.25
2023-02-22T12:56:29.559Z,99524.59
2023-02-22T12:59:02.955Z,99520.03
2023-02-22T13:01:33.995Z,99516.13
2023-02-22T13:04:19.438Z,99511.38
2023-02-22T13:06:56.821Z,99520.34
2023-02-22T13:09:26.602Z,99514.63
2023-02-22T13:11:57.540Z,99520.87
2023-02-22T13:14:43.804Z,99513.09
2023-02-22T13:17:21.162Z,99520.13
2023-02-22T13:19:57.803Z,99517.28
2023-02-22T13:22:41.293Z,99521.19
2023-02-22T13:25:09.209Z,99510.38
2023-02-22T13:27:38.557Z,99519.06
2023-02-22T13:30:06.198Z,99517.16
2023-02-22T13:32:52.171Z,99516.13
2023-02-22T13:35:21.438Z,99509.38
2023-02-22T13:38:07.563Z,99513.75
2023-02-22T13:40:35.039Z,99514.44
2023-02-22T13:43:31.393Z,99518.59
2023-02-22T13:46:25.224Z,99516.13
2023-02-22T13:49:11.305Z,99526.63
2023-02-22T13:51:48.869Z,99528.91
2023-02-22T13:54:18.227Z,99523.56
2023-02-22T13:56:46.135Z,99517.97
2023-02-22T13:59:40.099Z,99523.03
2023-02-22T14:02:08.062Z,99520.53
2023-02-22T14:04:38.195Z,99525.47
2023-02-22T14:07:26.562Z,99519.84
2023-02-22T14:09:56.144Z,99521.37
2023-02-22T14:12:29.900Z,99521.53
2023-02-22T14:15:18.744Z,99515.47
2023-02-22T14:17:55.061Z,99515.97
2023-02-22T14:20:30.180Z,99515.94
2023-02-22T14:22:57.869Z,99518.00
2023-02-22T14:25:36.816Z,99517.16
2023-02-22T14:28:06.239Z,99521.75
2023-02-22T14:30:34.840Z,99512.72
2023-02-22T14:33:02.297Z,99521.03
2023-02-22T14:35:49.135Z,99520.03
2023-02-22T14:38:21.092Z,99516.97
2023-02-22T14:40:48.587Z,99515.97
2023-02-22T14:43:19.932Z,99516.47
2023-02-22T14:45:54.122Z,99509.19
2023-02-22T14:48:21.321Z,99508.50
2023-02-22T14:50:51.171Z,99506.81
2023-02-22T14:53:21.785Z,99503.28
2023-02-22T14:55:58.020Z,99508.69
2023-02-22T14:58:46.107Z,99500.41
2023-02-22T15:01:20.230Z,99501.06
2023-02-22T15:03:51.402Z,99504.59
2023-02-22T15:06:25.845Z,99499.19
2023-02-22T15:09:04.976Z,99499.19
2023-02-22T15:11:32.525Z,99497.50
2023-02-22T15:14:00.549Z,99491.56
2023-02-22T15:16:32.150Z,99500.88
2023-02-22T15:19:00.885Z,99498.53
2023-02-22T15:21:28.409Z,99498.03
2023-02-22T15:24:01.101Z,99499.03
2023-02-22T15:26:35.344Z,99497.34
2023-02-22T15:29:02.963Z,99491.56
2023-02-22T15:31:30.747Z,99492.75
2023-02-22T15:33:58.100Z,99490.37
2023-02-22T15:36:26.672Z,99495.25
2023-02-22T15:38:55.865Z,99491.22
2023-02-22T15:41:27.923Z,99488.53
2023-02-22T15:44:17.664Z,99489.53
2023-02-22T15:46:48.647Z,99493.06
2023-02-22T15:49:15.994Z,99484.44
2023-02-22T15:51:46.410Z,99491.25
2023-02-22T15:54:26.566Z,99490.56
2023-02-22T15:56:57.709Z,99485.47
2023-02-22T15:59:30.313Z,99491.25
2023-02-22T16:01:57.864Z,99485.47
2023-02-22T16:04:27.210Z,99491.22
2023-02-22T16:07:01.959Z,99488.03
2023-02-22T16:09:30.447Z,99491.78
2023-02-22T16:12:20.857Z,99492.94
2023-02-22T16:14:52.468Z,99493.13
2023-02-22T16:17:31.453Z,99495.81
2023-02-22T16:19:59.809Z,99488.38
2023-02-22T16:22:34.018Z,99488.03
2023-02-22T16:25:35.766Z,99484.31
2023-02-22T16:28:06.322Z,99492.59
2023-02-22T16:30:37.863Z,99498.87
2023-02-22T16:33:09.270Z,99500.22
2023-02-22T16:35:37.961Z,99501.56
2023-02-22T16:38:16.833Z,99507.31
2023-02-22T16:40:50.573Z,99501.25
2023-02-22T16:43:25.124Z,99503.41
2023-02-22T16:45:55.393Z,99506.47
2023-02-22T16:48:23.788Z,99509.62
2023-02-22T16:50:51.725Z,99513.16
2023-02-22T16:53:20.124Z,99510.78
2023-02-22T16:55:47.552Z,99511.81
2023-02-22T16:58:15.263Z,99510.28
2023-02-22T17:00:42.852Z,99519.25
2023-02-22T17:03:10.823Z,99524.00
2023-02-22T17:05:38.233Z,99519.75
2023-02-22T17:08:05.874Z,99521.94
2023-02-22T17:10:33.430Z,99514.50
2023-02-22T17:13:05.229Z,99518.88
2023-02-22T17:15:40.565Z,99518.50
2023-02-22T17:18:13.951Z,99520.19
2023-02-22T17:20:41.398Z,99517.97
2023-02-22T17:23:09.062Z,99520.84
2023-02-22T17:25:43.618Z,99527.47
2023-02-22T17:28:11.301Z,99523.91
2023-02-22T17:30:38.608Z,99520.16
2023-02-22T17:33:06.658Z,99524.06
2023-02-22T17:35:36.860Z,99518.94
2023-02-22T17:38:08.247Z,99519.66
2023-02-22T17:40:36.754Z,99517.78
2023-02-22T17:43:04.204Z,99510.00
2023-02-22T17:45:31.459Z,99517.28
2023-02-22T17:47:59.524Z,99513.87
2023-02-22T17:50:26.932Z,99513.87
2023-02-22T17:52:54.209Z,99513.81
2023-02-22T17:55:21.866Z,99515.03
2023-02-22T17:57:52.773Z,99513.50
2023-02-22T18:00:33.040Z,99511.13
2023-02-22T18:03:01.777Z,99520.91
2023-02-22T18:05:29.315Z,99517.84
2023-02-22T18:07:56.705Z,99511.75
2023-02-22T18:10:26.351Z,99517.78
2023-02-22T18:12:53.755Z,99517.06
2023-02-22T18:15:28.219Z,99514.56
2023-02-22T18:17:56.113Z,99515.59
2023-02-22T18:20:38.072Z,99502.41
2023-02-22T18:23:07.489Z,99506.03
2023-02-22T18:25:36.443Z,99510.94
2023-02-22T18:28:06.183Z,99504.16
2023-02-22T18:30:35.923Z,99514.34
2023-02-22T18:33:06.892Z,99516.03
2023-02-22T18:35:34.531Z,99511.78
2023-02-22T18:38:01.948Z,99509.50
2023-02-22T18:40:29.296Z,99505.09
2023-02-22T18:42:56.940Z,99511.44
2023-02-22T18:45:26.273Z,99513.84
2023-02-22T18:47:56.378Z,99514.63
2023-02-22T18:50:23.791Z,99518.09
2023-02-22T18:52:51.180Z,99513.94
2023-02-22T18:55:19.029Z,99517.81
2023-02-22T18:57:47.029Z,99524.03
2023-02-22T19:00:15.943Z,99521.69
2023-02-22T19:02:43.619Z,99523.84
2023-02-22T19:05:17.413Z,99521.28
2023-02-22T19:07:45.217Z,99517.28
2023-02-22T19:10:12.843Z,99517.12
2023-02-22T19:12:40.134Z,99517.41
2023-02-22T19:15:08.097Z,99520.03
2023-02-22T19:17:36.597Z,99528.53
2023-02-22T19:20:08.794Z,99520.84
2023-02-22T19:22:39.525Z,99525.06
2023-02-22T19:25:08.003Z,99511.94
2023-02-22T19:27:36.092Z,99510.69
2023-02-22T19:30:04.665Z,99505.87
2023-02-22T19:32:33.576Z,99508.00
2023-02-22T19:35:06.844Z,99515.09
2023-02-22T19:37:35.693Z,99514.25
2023-02-22T19:40:06.927Z,99518.88
2023-02-22T19:42:35.366Z,99519.53
2023-02-22T19:45:03.020Z,99524.78
2023-02-22T19:47:30.810Z,99530.72
2023-02-22T19:49:59.829Z,99535.47
2023-02-22T19:52:28.981Z,99546.09
2023-02-22T19:54:56.680Z,99550.47
2023-02-22T19:57:24.843Z,99541.06
2023-02-22T19:59:52.408Z,99537.41
2023-02-22T20:02:22.945Z,99541.97
2023-02-22T20:04:51.341Z,99537.72
2023-02-22T20:07:18.751Z,99540.41
2023-02-22T20:09:46.129Z,99542.44
2023-02-22T20:12:13.848Z,99548.09
2023-02-22T20:14:41.113Z,99548.72
2023-02-22T20:17:09.927Z,99540.16
2023-02-22T20:19:38.772Z,99542.97
2023-02-22T20:22:06.397Z,99549.03
2023-02-22T20:24:33.761Z,99543.66
2023-02-22T20:27:01.502Z,99541.13
2023-02-22T20:29:31.773Z,99539.03
2023-02-22T20:31:59.916Z,99540.81
2023-02-22T20:34:31.316Z,99544.84
2023-02-22T20:36:58.920Z,99540.28
2023-02-22T20:39:26.139Z,99539.56
2023-02-22T20:41:54.632Z,99547.62
2023-02-22T20:44:22.023Z,99543.69
2023-02-22T20:46:49.315Z,99536.56
2023-02-22T20:49:18.774Z,99539.19
2023-02-22T20:51:46.485Z,99539.00
2023-02-22T20:54:13.917Z,99533.34
2023-02-22T20:56:44.162Z,99533.78
2023-02-22T20:59:12.768Z,99536.59
2023-02-22T21:01:40.423Z,99539.84
2023-02-22T21:04:10.023Z,99542.84
2023-02-22T21:06:38.962Z,99537.59
2023-02-22T21:09:09.564Z,99548.50
2023-02-22T21:11:37.297Z,99537.81
2023-02-22T21:14:04.670Z,99540.31
2023-02-22T21:16:33.952Z,99545.03
2023-02-22T21:19:02.461Z,99547.12
2023-02-22T21:21:29.886Z,99552.19
2023-02-22T21:23:57.835Z,99549.22
2023-02-22T21:26:27.676Z,99549.91
2023-02-22T21:28:55.566Z,99555.12
2023-02-22T21:31:24.345Z,99555.31
2023-02-22T21:33:53.201Z,99552.41
2023-02-22T21:36:20.734Z,99552.59
2023-02-22T21:38:53.290Z,99549.78
2023-02-22T21:41:21.694Z,99553.88
2023-02-22T21:43:49.296Z,99550.91
2023-02-22T21:46:16.662Z,99552.91
2023-02-22T21:48:45.265Z,99548.66
2023-02-22T21:51:15.637Z,99552.41
2023-02-22T21:53:45.824Z,99548.78
2023-02-22T21:56:15.247Z,99554.44
2023-02-22T21:58:43.502Z,99556.44
2023-02-22T22:01:10.975Z,99553.47
2023-02-22T22:03:38.508Z,99553.31
2023-02-22T22:06:06.714Z,99558.97
2023-02-22T22:08:35.242Z,99554.88
2023-02-22T22:11:04.433Z,99554.28
2023-02-22T22:13:32.676Z,99548.09
2023-02-22T22:16:03.862Z,99541.84
2023-02-22T22:18:31.319Z,99543.81
2023-02-22T22:20:59.438Z,99547.53
2023-02-22T22:23:26.613Z,99538.53
2023-02-22T22:26:02.053Z,99542.28
2023-02-22T22:28:31.529Z,99539.16
2023-02-22T22:30:59.096Z,99541.03
2023-02-22T22:33:26.576Z,99545.41
2023-02-22T22:35:56.460Z,99548.44
2023-02-22T22:38:26.396Z,99545.47
2023-02-22T22:40:53.708Z,99542.44
2023-02-22T22:43:20.876Z,99544.13
2023-02-22T22:45:48.284Z,99541.28
2023-02-22T22:48:15.444Z,99544.03
2023-02-22T22:50:46.489Z,99546.78
2023-02-22T22:53:13.912Z,99546.75
2023-02-22T22:55:41.816Z,99543.25
2023-02-22T22:58:10.255Z,99543.78
2023-02-22T23:00:37.899Z,99549.22
2023-02-22T23:03:05.685Z,99555.97
2023-02-22T23:05:37.278Z,99555.91
2023-02-22T23:08:05.049Z,99563.44
2023-02-22T23:10:32.921Z,99557.47
2023-02-22T23:13:00.096Z,99552.28
2023-02-22T23:15:27.559Z,99556.72
2023-02-22T23:17:59.268Z,99563.12
2023-02-22T23:20:26.601Z,99563.84
2023-02-22T23:22:55.212Z,99567.94
2023-02-22T23:25:22.518Z,99560.31
2023-02-22T23:27:49.811Z,99560.78
2023-02-22T23:30:18.672Z,99562.78
2023-02-22T23:32:46.676Z,99565.59
2023-02-22T23:35:14.990Z,99564.66
2023-02-22T23:37:42.553Z,99569.91
2023-02-22T23:40:16.980Z,99563.66
2023-02-22T23:42:48.983Z,99567.50
2023-02-22T23:45:22.684Z,99567.66
2023-02-22T23:47:50.519Z,99562.75
2023-02-22T23:50:19.231Z,99569.47
2023-02-22T23:52:46.413Z,99556.50
2023-02-22T23:55:13.949Z,99562.12
2023-02-22T23:57:43.194Z,99557.13
